Pagrindinis puslapis
METAR-TAF:

METAR-TAF

Oro uostai :

Anadyris, Rusija

platuma: 64-47N, ilguma: 177-34E, Aukštis: 62 m

Dabartinis oras

Ataskaita buvo paskelbta 34 minutes, ne 11:00 UTC
Vėjas 10 kt iš Šiaurės
Temperatūra -23°C
Drėgmė 76%
Slėgis 1023 hPa
Matomumas 10 km arba daugiau
sniegas

METAR: UHMA 251100Z 35005MPS 9999 -SN NSC M23/M26 Q1023 R01/////// NOSIG RMK TDZ R01/35005G06MPS END R01/35005G06MPS QFE764/1018

Laikas: 23:34 (11:34 UTC)

Prognozė

Ataskaita buvo paskelbta 3 valandos ir 57 minutes, ne 07:37 UTC
Prognozė galioja nuo 25 metu 09 UTC su 26 metu 09 UTC
Vėjas 6 kt iš Šiaurės su gūsio iki 16 kt
Matomumas 10 km arba daugiau
Su prošvaistėmis ne aukštis 3300 ft
sniegas
Laikinai
nuo 25 metu 09 UTC su 26 metu 09 UTC
Vėjas 12 kt iš Šiaurės/Šiaurės Vakarų
Matomumas: 3100 m
Išsisklaidę debesys ne aukštis 700 ft
Su prošvaistėmis ne aukštis 2000 ft
rūkana, Sniego pustymas pažeme

TAF: UHMA 250737Z 2509/2609 01003G08MPS 9999 -SN BKN033 TEMPO 2509/2609 33006MPS 3100 BR DRSN SCT007 BKN020

Orai ataskaitas ir orų prognozės (METAR, TAF).

turimą stotys yra geltonos ir raudonos taškus žemėlapyje.

Perkelti pele per norėdami pamatyti stoties vardą.

Tada spustelėkite, norėdami matyti oro stebėjimo ir prognozės.

Norėdami pakeisti žemėlapį: spustelėkite ant žalios mygtukų su juodo kryžiaus žemyn,; žalią mygtuką su brūkšneliu, jei norite nutolinti; arba žalių rodyklių gretimoms žemėlapius.


METAR-TAF: